createdAt,value
2019-04-26T00:01:26.952Z,10.67
2019-04-26T00:06:30.557Z,10.59
2019-04-26T00:11:41.563Z,10.54
2019-04-26T00:16:46.680Z,10.58
2019-04-26T00:21:50.197Z,10.26
2019-04-26T00:26:53.916Z,10.21
2019-04-26T00:31:57.443Z,10.13
2019-04-26T00:37:00.913Z,10.12
2019-04-26T00:42:04.651Z,10.03
2019-04-26T00:47:08.846Z,9.93
2019-04-26T00:52:14.491Z,9.79
2019-04-26T00:57:18.962Z,9.70
2019-04-26T01:02:29.959Z,9.73
2019-04-26T01:07:33.341Z,9.45
2019-04-26T01:12:36.812Z,9.19
2019-04-26T01:17:40.159Z,9.40
2019-04-26T01:22:46.721Z,9.75
2019-04-26T01:27:50.292Z,9.68
2019-04-26T01:32:53.794Z,9.66
2019-04-26T01:37:58.080Z,9.65
2019-04-26T01:43:08.918Z,9.73
2019-04-26T01:48:35.995Z,9.62
2019-04-26T01:53:39.410Z,9.45
2019-04-26T01:58:43.460Z,9.46
2019-04-26T02:03:46.894Z,9.48
2019-04-26T02:08:50.583Z,9.04
2019-04-26T02:13:54.061Z,9.05
2019-04-26T02:18:57.683Z,9.11
2019-04-26T02:24:05.435Z,9.13
2019-04-26T02:29:14.429Z,8.93
2019-04-26T02:34:17.863Z,8.57
2019-04-26T02:39:23.587Z,8.81
2019-04-26T02:44:31.337Z,8.81
2019-04-26T02:49:38.592Z,8.74
2019-04-26T02:54:47.962Z,8.57
2019-04-26T02:59:55.572Z,8.34
2019-04-26T03:05:02.494Z,8.29
2019-04-26T03:10:07.376Z,8.25
2019-04-26T03:15:20.316Z,7.93
2019-04-26T03:20:26.873Z,7.71
2019-04-26T03:25:50.143Z,7.83
2019-04-26T03:31:18.111Z,7.80
2019-04-26T03:37:01.217Z,7.82
2019-04-26T03:42:26.934Z,7.68
2019-04-26T03:47:35.630Z,7.50
2019-04-26T03:52:50.141Z,7.38
2019-04-26T03:58:15.221Z,7.49
2019-04-26T04:03:29.293Z,7.48
2019-04-26T04:08:50.984Z,7.74
2019-04-26T04:14:03.306Z,7.69
2019-04-26T04:19:13.834Z,7.77
2019-04-26T04:24:20.419Z,7.63
2019-04-26T04:29:42.703Z,7.81
2019-04-26T04:34:47.541Z,7.90
2019-04-26T04:40:21.162Z,7.98
2019-04-26T04:45:42.471Z,7.94
2019-04-26T04:51:04.302Z,7.85
2019-04-26T04:56:11.028Z,7.63
2019-04-26T05:01:22.157Z,7.69
2019-04-26T05:06:39.237Z,7.78
2019-04-26T05:11:52.004Z,7.85
2019-04-26T05:17:23.417Z,7.95
2019-04-26T05:22:51.398Z,8.15
2019-04-26T05:28:49.767Z,8.25
2019-04-26T05:34:03.403Z,8.28
2019-04-26T05:39:09.094Z,8.56
2019-04-26T05:44:29.325Z,8.77
2019-04-26T05:49:58.002Z,8.96
2019-04-26T05:55:20.804Z,9.24
2019-04-26T06:00:43.993Z,9.59
2019-04-26T06:06:13.548Z,10.09
2019-04-26T06:11:37.112Z,10.09
2019-04-26T06:17:15.453Z,10.28
2019-04-26T06:22:30.802Z,10.63
2019-04-26T06:27:58.382Z,10.84
2019-04-26T06:33:15.170Z,11.07
2019-04-26T06:38:47.869Z,11.32
2019-04-26T06:44:02.669Z,11.67
2019-04-26T06:49:10.667Z,12.12
2019-04-26T06:54:31.902Z,12.12
2019-04-26T06:59:52.986Z,12.27
2019-04-26T07:05:16.045Z,12.51
2019-04-26T07:10:22.564Z,12.62
2019-04-26T07:15:43.971Z,12.77
2019-04-26T07:21:10.116Z,13.04
2019-04-26T07:26:19.098Z,12.99
2019-04-26T07:31:32.752Z,13.23
2019-04-26T07:37:01.898Z,13.62
2019-04-26T07:42:31.883Z,13.57
2019-04-26T07:47:38.436Z,13.62
2019-04-26T07:53:03.676Z,13.65
2019-04-26T07:58:46.011Z,13.78
2019-04-26T08:03:56.938Z,13.93
2019-04-26T08:09:04.775Z,14.05
2019-04-26T08:14:22.939Z,14.25
2019-04-26T08:19:28.734Z,14.33
2019-04-26T08:24:34.071Z,14.35
2019-04-26T08:29:39.860Z,14.58
2019-04-26T08:34:46.505Z,14.69
2019-04-26T08:39:52.002Z,15.13
2019-04-26T08:44:58.076Z,15.47
2019-04-26T08:50:09.641Z,15.07
2019-04-26T08:55:12.573Z,14.95
2019-04-26T09:00:25.077Z,15.09
2019-04-26T09:05:37.410Z,15.45
2019-04-26T09:10:43.302Z,14.78
2019-04-26T09:16:02.339Z,15.01
2019-04-26T09:21:05.761Z,15.15
2019-04-26T09:26:26.744Z,15.11
2019-04-26T09:31:37.804Z,15.10
2019-04-26T09:36:41.205Z,14.89
2019-04-26T09:41:44.809Z,14.89
2019-04-26T09:47:01.692Z,15.08
2019-04-26T09:52:06.744Z,15.06
2019-04-26T09:57:10.110Z,14.88
2019-04-26T10:02:13.524Z,14.87
2019-04-26T10:07:16.883Z,15.07
2019-04-26T10:12:21.959Z,15.12
2019-04-26T10:17:27.293Z,15.10
2019-04-26T10:22:32.221Z,14.47
2019-04-26T10:27:36.320Z,15.14
2019-04-26T10:32:40.668Z,14.70
2019-04-26T10:37:48.169Z,15.00
2019-04-26T10:42:49.251Z,14.73
2019-04-26T10:47:52.658Z,14.56
2019-04-26T10:52:57.712Z,14.77
2019-04-26T10:58:14.783Z,14.67
2019-04-26T11:03:18.498Z,14.81
2019-04-26T11:08:21.890Z,14.45
2019-04-26T11:13:25.241Z,14.19
2019-04-26T11:18:28.694Z,14.31
2019-04-26T11:23:32.090Z,13.95
2019-04-26T11:28:35.452Z,13.95
2019-04-26T11:38:43.994Z,13.99
2019-04-26T11:40:14.053Z,14.01
2019-04-26T11:43:48.983Z,13.43
2019-04-26T11:48:58.909Z,13.17
2019-04-26T11:53:57.612Z,13.12
2019-04-26T11:59:01.030Z,12.81
2019-04-26T12:04:07.346Z,13.02
2019-04-26T12:09:12.689Z,12.84
2019-04-26T12:14:20.379Z,12.79
2019-04-26T12:19:21.165Z,12.54
2019-04-26T12:24:25.417Z,12.17
2019-04-26T12:29:29.891Z,12.23
2019-04-26T12:34:33.286Z,11.98
2019-04-26T12:39:38.265Z,12.03
2019-04-26T12:44:48.959Z,11.83
2019-04-26T12:49:54.546Z,11.89
2019-04-26T12:54:57.729Z,11.77
2019-04-26T13:00:08.679Z,11.70
2019-04-26T13:05:14.473Z,11.69
2019-04-26T13:10:25.225Z,11.59
2019-04-26T13:16:01.358Z,11.43
2019-04-26T13:21:05.932Z,11.40
2019-04-26T13:26:09.331Z,11.27
2019-04-26T13:31:13.778Z,11.13
2019-04-26T13:36:17.256Z,11.11
2019-04-26T13:41:20.918Z,11.03
2019-04-26T13:46:25.927Z,10.97
2019-04-26T13:51:33.714Z,10.87
2019-04-26T13:56:37.602Z,10.87
2019-04-26T14:01:41.173Z,10.67
2019-04-26T14:06:44.595Z,10.77
2019-04-26T14:11:47.956Z,11.02
2019-04-26T14:16:52.097Z,10.91
2019-04-26T14:21:56.480Z,10.96
2019-04-26T14:27:01.513Z,10.91
2019-04-26T14:32:04.945Z,10.89
2019-04-26T14:37:11.190Z,10.79
2019-04-26T14:42:13.492Z,10.76
2019-04-26T14:47:18.132Z,10.59
2019-04-26T14:52:24.055Z,10.45
2019-04-26T14:57:31.448Z,10.43
2019-04-26T15:02:47.371Z,10.40
2019-04-26T15:07:53.592Z,10.41
2019-04-26T15:13:11.494Z,10.28
2019-04-26T15:18:02.965Z,10.29
2019-04-26T15:23:06.526Z,10.20
2019-04-26T15:28:12.034Z,10.03
2019-04-26T15:33:14.969Z,9.99
2019-04-26T15:38:18.578Z,9.85
2019-04-26T15:43:26.046Z,9.59
2019-04-26T15:48:32.240Z,9.49
2019-04-26T15:53:35.683Z,9.43
2019-04-26T15:58:45.916Z,9.28
2019-04-26T16:03:44.721Z,9.33
2019-04-26T16:08:48.022Z,9.28
2019-04-26T16:13:55.490Z,8.91
2019-04-26T16:18:57.303Z,8.65
2019-04-26T16:24:02.653Z,8.68
2019-04-26T16:29:10.053Z,8.54
2019-04-26T16:34:25.092Z,8.54
2019-04-26T16:39:32.823Z,8.28
2019-04-26T16:44:33.627Z,8.28
2019-04-26T16:49:42.081Z,8.19
2019-04-26T16:54:42.505Z,8.25
2019-04-26T16:59:50.945Z,8.14
2019-04-26T17:04:53.422Z,8.16
2019-04-26T17:09:59.423Z,8.24
2019-04-26T17:15:03.202Z,7.94
2019-04-26T17:20:10.801Z,7.94
2019-04-26T17:25:26.994Z,8.09
2019-04-26T17:30:34.499Z,7.87
2019-04-26T17:35:36.626Z,8.06
2019-04-26T17:40:41.076Z,7.97
2019-04-26T17:45:44.674Z,7.87
2019-04-26T17:50:48.160Z,7.91
2019-04-26T17:55:54.599Z,7.90
2019-04-26T18:01:01.060Z,7.88
2019-04-26T18:06:02.051Z,7.83
2019-04-26T18:11:05.432Z,7.85
2019-04-26T18:16:08.845Z,7.86
2019-04-26T18:21:30.048Z,7.83
2019-04-26T18:26:33.475Z,7.80
2019-04-26T18:31:36.883Z,7.87
2019-04-26T18:36:40.271Z,7.92
2019-04-26T18:41:43.651Z,7.86
2019-04-26T18:46:48.630Z,7.76
2019-04-26T18:51:51.987Z,7.89
2019-04-26T18:56:57.002Z,7.90
2019-04-26T19:02:00.467Z,7.97
2019-04-26T19:07:03.909Z,7.82
2019-04-26T19:12:07.941Z,7.83
2019-04-26T19:17:13.080Z,7.79
2019-04-26T19:22:17.174Z,7.75
2019-04-26T19:27:26.687Z,7.79
2019-04-26T19:32:27.115Z,7.83
2019-04-26T19:37:36.657Z,7.71
2019-04-26T19:42:35.577Z,7.87
2019-04-26T19:47:43.961Z,7.93
2019-04-26T19:52:48.219Z,7.81
2019-04-26T19:57:59.230Z,7.75
2019-04-26T20:03:02.763Z,7.65
2019-04-26T20:08:06.214Z,7.74
2019-04-26T20:13:15.094Z,7.77
2019-04-26T20:18:17.333Z,7.67
2019-04-26T20:23:19.829Z,7.66
2019-04-26T20:28:23.402Z,7.75
2019-04-26T20:33:31.024Z,7.79
2019-04-26T20:38:42.571Z,7.80
2019-04-26T20:43:44.378Z,7.83
2019-04-26T20:48:44.487Z,7.78
2019-04-26T20:53:48.075Z,7.74
2019-04-26T20:58:52.294Z,7.76
2019-04-26T21:03:55.781Z,7.73
2019-04-26T21:09:03.375Z,7.80
2019-04-26T21:14:07.649Z,7.80
2019-04-26T21:19:12.806Z,7.68
2019-04-26T21:24:20.046Z,7.69
2019-04-26T21:29:27.466Z,7.62
2019-04-26T21:34:35.429Z,7.67
2019-04-26T21:39:57.976Z,7.80
2019-04-26T21:45:03.373Z,7.67
2019-04-26T21:50:07.195Z,7.69
2019-04-26T21:55:10.541Z,7.75
2019-04-26T22:00:34.052Z,7.68
2019-04-26T22:05:37.389Z,7.79
2019-04-26T22:10:47.279Z,7.71
2019-04-26T22:15:55.439Z,7.77
2019-04-26T22:21:12.844Z,7.79
2019-04-26T22:26:17.165Z,7.92
2019-04-26T22:31:20.633Z,7.94
2019-04-26T22:36:27.420Z,7.93
2019-04-26T22:41:29.739Z,7.96
2019-04-26T22:46:47.014Z,7.87
2019-04-26T22:51:45.915Z,7.79
2019-04-26T22:56:49.282Z,7.94
2019-04-26T23:01:53.632Z,8.04
2019-04-26T23:06:57.179Z,7.74
2019-04-26T23:12:05.117Z,7.76
2019-04-26T23:17:10.128Z,7.76
2019-04-26T23:22:13.606Z,7.74
2019-04-26T23:27:20.602Z,7.79
2019-04-26T23:32:23.468Z,7.77
2019-04-26T23:37:27.734Z,7.76
2019-04-26T23:42:32.808Z,7.72
2019-04-26T23:47:38.904Z,7.74
2019-04-26T23:52:41.478Z,7.71
2019-04-26T23:57:44.830Z,7.79
